sensor_id;sensor_type;location;lat;lon;timestamp;temperature;humidity
6556;DHT22;3311;48.32423000;14.29074500;2023-03-01T00:01:02;9.10;40.80
6556;DHT22;3311;48.32423000;14.29074500;2023-03-01T00:03:29;9.10;40.50
6556;DHT22;3311;48.32423000;14.29074500;2023-03-01T00:05:58;9.10;40.40
6556;DHT22;3311;48.32423000;14.29074500;2023-03-01T00:08:25;9.10;40.20
6556;DHT22;3311;48.32423000;14.29074500;2023-03-01T00:11:01;9.00;40.30
6556;DHT22;3311;48.32423000;14.29074500;2023-03-01T00:13:30;9.10;40.30
6556;DHT22;3311;48.32423000;14.29074500;2023-03-01T00:15:57;9.00;40.30
6556;DHT22;3311;48.32423000;14.29074500;2023-03-01T00:18:25;9.00;40.40
6556;DHT22;3311;48.32423000;14.29074500;2023-03-01T00:20:53;9.00;40.30
6556;DHT22;3311;48.32423000;14.29074500;2023-03-01T00:23:22;8.90;40.40
6556;DHT22;3311;48.32423000;14.29074500;2023-03-01T00:25:50;8.90;40.20
6556;DHT22;3311;48.32423000;14.29074500;2023-03-01T00:28:18;8.90;40.50
6556;DHT22;3311;48.32423000;14.29074500;2023-03-01T00:30:47;9.00;40.70
6556;DHT22;3311;48.32423000;14.29074500;2023-03-01T00:33:14;8.90;40.10
6556;DHT22;3311;48.32423000;14.29074500;2023-03-01T00:35:42;8.90;40.30
6556;DHT22;3311;48.32423000;14.29074500;2023-03-01T00:38:09;9.00;40.30
6556;DHT22;3311;48.32423000;14.29074500;2023-03-01T00:40:37;8.90;40.00
6556;DHT22;3311;48.32423000;14.29074500;2023-03-01T00:43:04;8.90;40.10
6556;DHT22;3311;48.32423000;14.29074500;2023-03-01T00:45:33;9.00;40.10
6556;DHT22;3311;48.32423000;14.29074500;2023-03-01T00:48:01;9.00;39.90
6556;DHT22;3311;48.32423000;14.29074500;2023-03-01T00:50:29;9.00;40.00
6556;DHT22;3311;48.32423000;14.29074500;2023-03-01T00:52:56;9.10;40.00
6556;DHT22;3311;48.32423000;14.29074500;2023-03-01T00:55:24;9.10;39.60
6556;DHT22;3311;48.32423000;14.29074500;2023-03-01T00:57:51;9.00;39.70
6556;DHT22;3311;48.32423000;14.29074500;2023-03-01T01:00:20;9.00;39.50
6556;DHT22;3311;48.32423000;14.29074500;2023-03-01T01:02:47;9.00;39.50
6556;DHT22;3311;48.32423000;14.29074500;2023-03-01T01:05:16;9.00;39.70
6556;DHT22;3311;48.32423000;14.29074500;2023-03-01T01:07:47;9.00;39.70
6556;DHT22;3311;48.32423000;14.29074500;2023-03-01T01:10:15;8.90;39.40
6556;DHT22;3311;48.32423000;14.29074500;2023-03-01T01:12:44;8.90;39.70
6556;DHT22;3311;48.32423000;14.29074500;2023-03-01T01:15:12;9.00;39.40
6556;DHT22;3311;48.32423000;14.29074500;2023-03-01T01:17:45;9.00;39.40
6556;DHT22;3311;48.32423000;14.29074500;2023-03-01T01:20:12;9.00;39.40
6556;DHT22;3311;48.32423000;14.29074500;2023-03-01T01:22:41;9.10;39.30
6556;DHT22;3311;48.32423000;14.29074500;2023-03-01T01:25:09;9.10;39.10
6556;DHT22;3311;48.32423000;14.29074500;2023-03-01T01:27:37;9.00;39.00
6556;DHT22;3311;48.32423000;14.29074500;2023-03-01T01:30:06;9.10;39.20
6556;DHT22;3311;48.32423000;14.29074500;2023-03-01T01:32:33;9.00;39.00
6556;DHT22;3311;48.32423000;14.29074500;2023-03-01T01:35:01;9.00;38.90
6556;DHT22;3311;48.32423000;14.29074500;2023-03-01T01:37:28;9.10;39.10
6556;DHT22;3311;48.32423000;14.29074500;2023-03-01T01:39:58;9.10;38.80
6556;DHT22;3311;48.32423000;14.29074500;2023-03-01T01:42:27;9.00;38.90
6556;DHT22;3311;48.32423000;14.29074500;2023-03-01T01:45:26;9.10;38.90
6556;DHT22;3311;48.32423000;14.29074500;2023-03-01T01:47:57;9.00;38.70
6556;DHT22;3311;48.32423000;14.29074500;2023-03-01T01:50:26;9.00;38.90
6556;DHT22;3311;48.32423000;14.29074500;2023-03-01T01:53:07;9.00;38.90
6556;DHT22;3311;48.32423000;14.29074500;2023-03-01T01:55:39;9.00;38.70
6556;DHT22;3311;48.32423000;14.29074500;2023-03-01T01:58:09;9.00;38.70
6556;DHT22;3311;48.32423000;14.29074500;2023-03-01T02:00:38;9.00;38.80
6556;DHT22;3311;48.32423000;14.29074500;2023-03-01T02:03:09;9.00;38.80
6556;DHT22;3311;48.32423000;14.29074500;2023-03-01T02:05:43;8.90;38.60
6556;DHT22;3311;48.32423000;14.29074500;2023-03-01T02:08:14;8.90;39.00
6556;DHT22;3311;48.32423000;14.29074500;2023-03-01T02:10:45;8.90;38.80
6556;DHT22;3311;48.32423000;14.29074500;2023-03-01T02:13:13;9.00;38.90
6556;DHT22;3311;48.32423000;14.29074500;2023-03-01T02:15:41;8.90;38.50
6556;DHT22;3311;48.32423000;14.29074500;2023-03-01T02:18:12;8.90;38.80
6556;DHT22;3311;48.32423000;14.29074500;2023-03-01T02:20:48;8.90;38.60
6556;DHT22;3311;48.32423000;14.29074500;2023-03-01T02:23:18;8.90;38.80
6556;DHT22;3311;48.32423000;14.29074500;2023-03-01T02:25:53;8.90;38.70
6556;DHT22;3311;48.32423000;14.29074500;2023-03-01T02:28:32;8.90;38.80
6556;DHT22;3311;48.32423000;14.29074500;2023-03-01T02:31:01;8.90;38.80
6556;DHT22;3311;48.32423000;14.29074500;2023-03-01T02:33:46;8.80;38.80
6556;DHT22;3311;48.32423000;14.29074500;2023-03-01T02:36:18;9.00;38.80
6556;DHT22;3311;48.32423000;14.29074500;2023-03-01T02:38:48;8.90;38.50
6556;DHT22;3311;48.32423000;14.29074500;2023-03-01T02:41:18;9.00;38.60
6556;DHT22;3311;48.32423000;14.29074500;2023-03-01T02:43:48;9.10;38.50
6556;DHT22;3311;48.32423000;14.29074500;2023-03-01T02:46:18;8.90;38.40
6556;DHT22;3311;48.32423000;14.29074500;2023-03-01T02:48:47;8.80;38.50
6556;DHT22;3311;48.32423000;14.29074500;2023-03-01T02:51:40;8.90;38.70
6556;DHT22;3311;48.32423000;14.29074500;2023-03-01T02:54:20;8.90;38.40
6556;DHT22;3311;48.32423000;14.29074500;2023-03-01T02:56:51;8.90;38.50
6556;DHT22;3311;48.32423000;14.29074500;2023-03-01T02:59:23;8.80;38.40
6556;DHT22;3311;48.32423000;14.29074500;2023-03-01T03:01:51;8.80;38.60
6556;DHT22;3311;48.32423000;14.29074500;2023-03-01T03:04:19;8.70;38.50
6556;DHT22;3311;48.32423000;14.29074500;2023-03-01T03:06:48;8.60;38.70
6556;DHT22;3311;48.32423000;14.29074500;2023-03-01T03:09:16;8.60;38.60
6556;DHT22;3311;48.32423000;14.29074500;2023-03-01T03:11:44;8.60;38.70
6556;DHT22;3311;48.32423000;14.29074500;2023-03-01T03:14:13;8.70;38.50
6556;DHT22;3311;48.32423000;14.29074500;2023-03-01T03:16:45;8.60;38.60
6556;DHT22;3311;48.32423000;14.29074500;2023-03-01T03:19:13;8.70;38.90
6556;DHT22;3311;48.32423000;14.29074500;2023-03-01T03:21:42;8.70;38.80
6556;DHT22;3311;48.32423000;14.29074500;2023-03-01T03:24:09;8.90;38.80
6556;DHT22;3311;48.32423000;14.29074500;2023-03-01T03:26:36;8.90;38.50
6556;DHT22;3311;48.32423000;14.29074500;2023-03-01T03:29:04;8.80;38.40
6556;DHT22;3311;48.32423000;14.29074500;2023-03-01T03:31:31;8.80;38.40
6556;DHT22;3311;48.32423000;14.29074500;2023-03-01T03:34:00;8.90;38.30
6556;DHT22;3311;48.32423000;14.29074500;2023-03-01T03:36:27;9.00;38.40
6556;DHT22;3311;48.32423000;14.29074500;2023-03-01T03:38:55;9.00;38.20
6556;DHT22;3311;48.32423000;14.29074500;2023-03-01T03:41:22;9.00;37.90
6556;DHT22;3311;48.32423000;14.29074500;2023-03-01T03:43:49;9.00;37.90
6556;DHT22;3311;48.32423000;14.29074500;2023-03-01T03:46:16;9.00;38.10
6556;DHT22;3311;48.32423000;14.29074500;2023-03-01T03:48:45;8.90;38.10
6556;DHT22;3311;48.32423000;14.29074500;2023-03-01T03:51:16;9.00;38.30
6556;DHT22;3311;48.32423000;14.29074500;2023-03-01T03:53:44;9.00;38.10
6556;DHT22;3311;48.32423000;14.29074500;2023-03-01T03:56:12;9.00;38.00
6556;DHT22;3311;48.32423000;14.29074500;2023-03-01T03:58:40;8.90;38.10
6556;DHT22;3311;48.32423000;14.29074500;2023-03-01T04:01:07;8.90;38.10
6556;DHT22;3311;48.32423000;14.29074500;2023-03-01T04:03:35;8.80;38.00
6556;DHT22;3311;48.32423000;14.29074500;2023-03-01T04:06:03;9.00;38.50
6556;DHT22;3311;48.32423000;14.29074500;2023-03-01T04:08:33;9.00;38.00
6556;DHT22;3311;48.32423000;14.29074500;2023-03-01T04:11:02;8.90;38.60
6556;DHT22;3311;48.32423000;14.29074500;2023-03-01T04:13:52;9.00;37.90
6556;DHT22;3311;48.32423000;14.29074500;2023-03-01T04:16:20;9.10;37.80
6556;DHT22;3311;48.32423000;14.29074500;2023-03-01T04:18:47;9.00;37.90
6556;DHT22;3311;48.32423000;14.29074500;2023-03-01T04:21:15;9.00;37.90
6556;DHT22;3311;48.32423000;14.29074500;2023-03-01T04:23:43;9.00;38.00
6556;DHT22;3311;48.32423000;14.29074500;2023-03-01T04:26:11;8.90;38.00
6556;DHT22;3311;48.32423000;14.29074500;2023-03-01T04:28:40;8.90;37.90
6556;DHT22;3311;48.32423000;14.29074500;2023-03-01T04:31:10;9.00;38.00
6556;DHT22;3311;48.32423000;14.29074500;2023-03-01T04:33:43;9.00;38.10
6556;DHT22;3311;48.32423000;14.29074500;2023-03-01T04:36:12;9.10;37.70
6556;DHT22;3311;48.32423000;14.29074500;2023-03-01T04:38:40;9.10;37.90
6556;DHT22;3311;48.32423000;14.29074500;2023-03-01T04:41:10;9.00;37.50
6556;DHT22;3311;48.32423000;14.29074500;2023-03-01T04:43:38;8.90;37.50
6556;DHT22;3311;48.32423000;14.29074500;2023-03-01T04:46:06;8.90;37.90
6556;DHT22;3311;48.32423000;14.29074500;2023-03-01T04:48:37;8.80;37.90
6556;DHT22;3311;48.32423000;14.29074500;2023-03-01T04:51:05;8.60;38.00
6556;DHT22;3311;48.32423000;14.29074500;2023-03-01T04:53:34;8.60;38.30
6556;DHT22;3311;48.32423000;14.29074500;2023-03-01T04:56:03;8.60;38.40
6556;DHT22;3311;48.32423000;14.29074500;2023-03-01T04:58:32;8.50;38.20
6556;DHT22;3311;48.32423000;14.29074500;2023-03-01T05:01:00;8.40;38.50
6556;DHT22;3311;48.32423000;14.29074500;2023-03-01T05:03:27;8.50;38.50
6556;DHT22;3311;48.32423000;14.29074500;2023-03-01T05:05:58;8.40;38.50
6556;DHT22;3311;48.32423000;14.29074500;2023-03-01T05:08:26;8.40;38.70
6556;DHT22;3311;48.32423000;14.29074500;2023-03-01T05:10:54;8.40;38.50
6556;DHT22;3311;48.32423000;14.29074500;2023-03-01T05:13:21;8.30;38.70
6556;DHT22;3311;48.32423000;14.29074500;2023-03-01T05:15:54;8.30;38.80
6556;DHT22;3311;48.32423000;14.29074500;2023-03-01T05:18:22;8.30;38.80
6556;DHT22;3311;48.32423000;14.29074500;2023-03-01T05:20:51;8.50;38.70
6556;DHT22;3311;48.32423000;14.29074500;2023-03-01T05:23:22;8.60;38.50
6556;DHT22;3311;48.32423000;14.29074500;2023-03-01T05:25:49;8.50;38.30
6556;DHT22;3311;48.32423000;14.29074500;2023-03-01T05:28:19;8.40;38.40
6556;DHT22;3311;48.32423000;14.29074500;2023-03-01T05:30:47;8.30;38.80
6556;DHT22;3311;48.32423000;14.29074500;2023-03-01T05:33:18;8.30;38.70
6556;DHT22;3311;48.32423000;14.29074500;2023-03-01T05:35:48;8.40;38.70
6556;DHT22;3311;48.32423000;14.29074500;2023-03-01T05:38:18;8.40;38.70
6556;DHT22;3311;48.32423000;14.29074500;2023-03-01T05:40:46;8.40;38.70
6556;DHT22;3311;48.32423000;14.29074500;2023-03-01T05:43:16;8.40;38.60
6556;DHT22;3311;48.32423000;14.29074500;2023-03-01T05:45:44;8.30;38.70
6556;DHT22;3311;48.32423000;14.29074500;2023-03-01T05:48:12;8.30;38.90
6556;DHT22;3311;48.32423000;14.29074500;2023-03-01T05:50:42;8.30;39.10
6556;DHT22;3311;48.32423000;14.29074500;2023-03-01T05:53:12;8.30;38.90
6556;DHT22;3311;48.32423000;14.29074500;2023-03-01T05:55:41;8.30;39.00
6556;DHT22;3311;48.32423000;14.29074500;2023-03-01T05:58:12;8.40;38.80
6556;DHT22;3311;48.32423000;14.29074500;2023-03-01T06:00:41;8.30;38.90
6556;DHT22;3311;48.32423000;14.29074500;2023-03-01T06:03:10;8.20;38.90
6556;DHT22;3311;48.32423000;14.29074500;2023-03-01T06:05:39;8.50;39.10
6556;DHT22;3311;48.32423000;14.29074500;2023-03-01T06:08:09;8.40;38.70
6556;DHT22;3311;48.32423000;14.29074500;2023-03-01T06:10:37;8.30;39.00
6556;DHT22;3311;48.32423000;14.29074500;2023-03-01T06:13:04;8.20;39.10
6556;DHT22;3311;48.32423000;14.29074500;2023-03-01T06:15:32;8.50;39.50
6556;DHT22;3311;48.32423000;14.29074500;2023-03-01T06:17:59;8.80;38.90
6556;DHT22;3311;48.32423000;14.29074500;2023-03-01T06:20:28;9.00;38.50
6556;DHT22;3311;48.32423000;14.29074500;2023-03-01T06:22:56;9.30;38.00
6556;DHT22;3311;48.32423000;14.29074500;2023-03-01T06:25:26;9.30;37.60
6556;DHT22;3311;48.32423000;14.29074500;2023-03-01T06:27:53;9.50;37.60
6556;DHT22;3311;48.32423000;14.29074500;2023-03-01T06:30:22;9.60;37.40
6556;DHT22;3311;48.32423000;14.29074500;2023-03-01T06:32:49;9.80;37.20
6556;DHT22;3311;48.32423000;14.29074500;2023-03-01T06:35:18;9.90;36.90
6556;DHT22;3311;48.32423000;14.29074500;2023-03-01T06:37:46;10.00;35.70
6556;DHT22;3311;48.32423000;14.29074500;2023-03-01T06:40:15;10.10;35.40
6556;DHT22;3311;48.32423000;14.29074500;2023-03-01T06:42:48;10.20;35.20
6556;DHT22;3311;48.32423000;14.29074500;2023-03-01T06:45:17;10.40;35.70
6556;DHT22;3311;48.32423000;14.29074500;2023-03-01T06:47:44;10.50;35.20
6556;DHT22;3311;48.32423000;14.29074500;2023-03-01T06:50:13;10.60;34.80
6556;DHT22;3311;48.32423000;14.29074500;2023-03-01T06:52:40;10.80;34.70
6556;DHT22;3311;48.32423000;14.29074500;2023-03-01T06:55:09;10.80;34.50
6556;DHT22;3311;48.32423000;14.29074500;2023-03-01T06:57:37;10.80;34.40
6556;DHT22;3311;48.32423000;14.29074500;2023-03-01T07:00:07;10.90;34.40
6556;DHT22;3311;48.32423000;14.29074500;2023-03-01T07:02:35;10.90;34.30
6556;DHT22;3311;48.32423000;14.29074500;2023-03-01T07:05:02;11.00;34.30
6556;DHT22;3311;48.32423000;14.29074500;2023-03-01T07:07:29;11.20;34.10
6556;DHT22;3311;48.32423000;14.29074500;2023-03-01T07:09:56;11.10;33.70
6556;DHT22;3311;48.32423000;14.29074500;2023-03-01T07:12:23;11.20;33.90
6556;DHT22;3311;48.32423000;14.29074500;2023-03-01T07:14:51;11.20;33.60
6556;DHT22;3311;48.32423000;14.29074500;2023-03-01T07:17:19;11.30;33.70
6556;DHT22;3311;48.32423000;14.29074500;2023-03-01T07:19:48;11.40;33.60
6556;DHT22;3311;48.32423000;14.29074500;2023-03-01T07:22:16;11.50;33.60
6556;DHT22;3311;48.32423000;14.29074500;2023-03-01T07:24:43;11.40;33.40
6556;DHT22;3311;48.32423000;14.29074500;2023-03-01T07:27:10;11.40;33.30
6556;DHT22;3311;48.32423000;14.29074500;2023-03-01T07:29:38;11.50;33.40
6556;DHT22;3311;48.32423000;14.29074500;2023-03-01T07:32:05;11.60;33.10
6556;DHT22;3311;48.32423000;14.29074500;2023-03-01T07:34:34;11.70;33.30
6556;DHT22;3311;48.32423000;14.29074500;2023-03-01T07:37:01;11.80;33.20
6556;DHT22;3311;48.32423000;14.29074500;2023-03-01T07:39:28;11.80;33.00
6556;DHT22;3311;48.32423000;14.29074500;2023-03-01T07:41:55;11.90;33.00
6556;DHT22;3311;48.32423000;14.29074500;2023-03-01T07:44:23;11.90;32.80
6556;DHT22;3311;48.32423000;14.29074500;2023-03-01T07:46:50;11.90;32.90
6556;DHT22;3311;48.32423000;14.29074500;2023-03-01T07:49:22;12.00;32.80
6556;DHT22;3311;48.32423000;14.29074500;2023-03-01T07:51:50;12.00;32.90
6556;DHT22;3311;48.32423000;14.29074500;2023-03-01T07:54:17;12.00;32.80
6556;DHT22;3311;48.32423000;14.29074500;2023-03-01T07:56:45;12.00;32.70
6556;DHT22;3311;48.32423000;14.29074500;2023-03-01T07:59:12;12.00;32.80
6556;DHT22;3311;48.32423000;14.29074500;2023-03-01T08:01:39;12.10;32.90
6556;DHT22;3311;48.32423000;14.29074500;2023-03-01T08:04:08;12.20;32.90
6556;DHT22;3311;48.32423000;14.29074500;2023-03-01T08:06:36;12.30;32.80
6556;DHT22;3311;48.32423000;14.29074500;2023-03-01T08:09:05;12.30;32.70
6556;DHT22;3311;48.32423000;14.29074500;2023-03-01T08:11:33;12.20;32.50
6556;DHT22;3311;48.32423000;14.29074500;2023-03-01T08:14:00;12.20;32.70
6556;DHT22;3311;48.32423000;14.29074500;2023-03-01T08:16:27;12.10;32.50
6556;DHT22;3311;48.32423000;14.29074500;2023-03-01T08:18:55;12.20;32.70
6556;DHT22;3311;48.32423000;14.29074500;2023-03-01T08:21:26;12.30;32.70
6556;DHT22;3311;48.32423000;14.29074500;2023-03-01T08:23:53;12.30;32.90
6556;DHT22;3311;48.32423000;14.29074500;2023-03-01T08:26:22;12.40;32.90
6556;DHT22;3311;48.32423000;14.29074500;2023-03-01T08:28:49;12.50;32.80
6556;DHT22;3311;48.32423000;14.29074500;2023-03-01T08:31:19;12.40;32.50
6556;DHT22;3311;48.32423000;14.29074500;2023-03-01T08:33:47;12.30;32.70
6556;DHT22;3311;48.32423000;14.29074500;2023-03-01T08:36:17;12.40;32.80
6556;DHT22;3311;48.32423000;14.29074500;2023-03-01T08:38:45;12.40;32.90
6556;DHT22;3311;48.32423000;14.29074500;2023-03-01T08:41:12;12.50;33.00
6556;DHT22;3311;48.32423000;14.29074500;2023-03-01T08:43:41;12.50;32.90
6556;DHT22;3311;48.32423000;14.29074500;2023-03-01T08:46:08;12.60;32.90
6556;DHT22;3311;48.32423000;14.29074500;2023-03-01T08:48:36;12.60;32.80
6556;DHT22;3311;48.32423000;14.29074500;2023-03-01T08:51:11;12.60;32.80
6556;DHT22;3311;48.32423000;14.29074500;2023-03-01T08:53:38;12.40;32.80
6556;DHT22;3311;48.32423000;14.29074500;2023-03-01T08:56:06;12.60;33.30
6556;DHT22;3311;48.32423000;14.29074500;2023-03-01T08:58:34;12.60;33.20
6556;DHT22;3311;48.32423000;14.29074500;2023-03-01T09:01:07;12.60;33.10
6556;DHT22;3311;48.32423000;14.29074500;2023-03-01T09:03:34;12.60;33.40
6556;DHT22;3311;48.32423000;14.29074500;2023-03-01T09:06:02;12.60;33.30
6556;DHT22;3311;48.32423000;14.29074500;2023-03-01T09:08:30;12.70;33.50
6556;DHT22;3311;48.32423000;14.29074500;2023-03-01T09:10:57;12.70;33.50
6556;DHT22;3311;48.32423000;14.29074500;2023-03-01T09:13:24;12.70;33.50
6556;DHT22;3311;48.32423000;14.29074500;2023-03-01T09:15:57;12.70;33.70
6556;DHT22;3311;48.32423000;14.29074500;2023-03-01T09:18:25;12.70;33.90
6556;DHT22;3311;48.32423000;14.29074500;2023-03-01T09:20:53;12.70;33.90
6556;DHT22;3311;48.32423000;14.29074500;2023-03-01T09:23:21;12.70;34.00
6556;DHT22;3311;48.32423000;14.29074500;2023-03-01T09:25:48;12.70;34.20
6556;DHT22;3311;48.32423000;14.29074500;2023-03-01T09:28:15;12.70;34.40
6556;DHT22;3311;48.32423000;14.29074500;2023-03-01T09:30:43;12.70;34.30
6556;DHT22;3311;48.32423000;14.29074500;2023-03-01T09:33:10;12.70;34.50
6556;DHT22;3311;48.32423000;14.29074500;2023-03-01T09:35:41;12.70;34.60
6556;DHT22;3311;48.32423000;14.29074500;2023-03-01T09:38:12;12.70;34.60
6556;DHT22;3311;48.32423000;14.29074500;2023-03-01T09:40:42;12.70;34.80
6556;DHT22;3311;48.32423000;14.29074500;2023-03-01T09:43:20;12.60;34.90
6556;DHT22;3311;48.32423000;14.29074500;2023-03-01T09:45:49;12.60;35.10
6556;DHT22;3311;48.32423000;14.29074500;2023-03-01T09:48:19;12.50;35.20
6556;DHT22;3311;48.32423000;14.29074500;2023-03-01T09:50:51;12.50;35.50
6556;DHT22;3311;48.32423000;14.29074500;2023-03-01T09:53:21;12.60;35.60
6556;DHT22;3311;48.32423000;14.29074500;2023-03-01T09:55:51;12.60;35.70
6556;DHT22;3311;48.32423000;14.29074500;2023-03-01T09:58:41;12.70;35.70
6556;DHT22;3311;48.32423000;14.29074500;2023-03-01T10:01:29;12.60;35.80
6556;DHT22;3311;48.32423000;14.29074500;2023-03-01T10:04:28;12.60;36.10
6556;DHT22;3311;48.32423000;14.29074500;2023-03-01T10:07:11;12.60;36.20
6556;DHT22;3311;48.32423000;14.29074500;2023-03-01T10:09:43;12.60;36.30
6556;DHT22;3311;48.32423000;14.29074500;2023-03-01T10:12:13;12.50;36.30
6556;DHT22;3311;48.32423000;14.29074500;2023-03-01T10:14:48;12.50;36.50
6556;DHT22;3311;48.32423000;14.29074500;2023-03-01T10:17:26;12.50;36.70
6556;DHT22;3311;48.32423000;14.29074500;2023-03-01T10:19:55;12.50;36.80
6556;DHT22;3311;48.32423000;14.29074500;2023-03-01T10:22:28;12.60;36.90
6556;DHT22;3311;48.32423000;14.29074500;2023-03-01T10:24:58;12.50;36.90
6556;DHT22;3311;48.32423000;14.29074500;2023-03-01T10:27:33;12.50;36.90
6556;DHT22;3311;48.32423000;14.29074500;2023-03-01T10:30:09;12.50;37.10
6556;DHT22;3311;48.32423000;14.29074500;2023-03-01T10:32:42;12.50;37.20
6556;DHT22;3311;48.32423000;14.29074500;2023-03-01T10:35:18;12.60;37.20
6556;DHT22;3311;48.32423000;14.29074500;2023-03-01T10:38:03;12.70;37.10
6556;DHT22;3311;48.32423000;14.29074500;2023-03-01T10:40:31;12.70;37.20
6556;DHT22;3311;48.32423000;14.29074500;2023-03-01T10:43:00;12.70;37.10
6556;DHT22;3311;48.32423000;14.29074500;2023-03-01T10:45:35;12.70;37.10
6556;DHT22;3311;48.32423000;14.29074500;2023-03-01T10:48:11;12.70;37.10
6556;DHT22;3311;48.32423000;14.29074500;2023-03-01T10:50:41;12.70;37.20
6556;DHT22;3311;48.32423000;14.29074500;2023-03-01T10:53:24;12.70;37.30
6556;DHT22;3311;48.32423000;14.29074500;2023-03-01T10:55:59;12.60;37.50
6556;DHT22;3311;48.32423000;14.29074500;2023-03-01T10:58:28;12.70;37.60
6556;DHT22;3311;48.32423000;14.29074500;2023-03-01T11:00:56;12.10;37.20
6556;DHT22;3311;48.32423000;14.29074500;2023-03-01T11:03:25;12.70;37.70
6556;DHT22;3311;48.32423000;14.29074500;2023-03-01T11:05:56;12.60;37.70
6556;DHT22;3311;48.32423000;14.29074500;2023-03-01T11:08:43;12.60;38.00
6556;DHT22;3311;48.32423000;14.29074500;2023-03-01T11:13:56;12.50;38.30
6556;DHT22;3311;48.32423000;14.29074500;2023-03-01T11:16:35;12.50;38.40
6556;DHT22;3311;48.32423000;14.29074500;2023-03-01T11:19:18;12.60;38.50
6556;DHT22;3311;48.32423000;14.29074500;2023-03-01T11:21:56;12.60;38.50
6556;DHT22;3311;48.32423000;14.29074500;2023-03-01T11:24:32;12.60;38.50
6556;DHT22;3311;48.32423000;14.29074500;2023-03-01T11:27:04;12.60;38.70
6556;DHT22;3311;48.32423000;14.29074500;2023-03-01T11:29:39;12.60;38.70
6556;DHT22;3311;48.32423000;14.29074500;2023-03-01T11:32:08;12.60;38.80
6556;DHT22;3311;48.32423000;14.29074500;2023-03-01T11:34:40;12.70;38.90
6556;DHT22;3311;48.32423000;14.29074500;2023-03-01T11:37:21;12.60;39.10
6556;DHT22;3311;48.32423000;14.29074500;2023-03-01T11:39:59;12.50;39.10
6556;DHT22;3311;48.32423000;14.29074500;2023-03-01T11:42:42;12.60;39.30
6556;DHT22;3311;48.32423000;14.29074500;2023-03-01T11:45:13;12.60;39.30
6556;DHT22;3311;48.32423000;14.29074500;2023-03-01T11:47:59;12.60;39.30
6556;DHT22;3311;48.32423000;14.29074500;2023-03-01T11:50:36;12.60;39.30
6556;DHT22;3311;48.32423000;14.29074500;2023-03-01T11:53:19;12.60;39.40
6556;DHT22;3311;48.32423000;14.29074500;2023-03-01T11:56:07;12.60;39.40
6556;DHT22;3311;48.32423000;14.29074500;2023-03-01T12:01:44;12.60;39.60
6556;DHT22;3311;48.32423000;14.29074500;2023-03-01T12:04:51;12.70;39.60
6556;DHT22;3311;48.32423000;14.29074500;2023-03-01T12:07:25;12.70;39.60
6556;DHT22;3311;48.32423000;14.29074500;2023-03-01T12:16:07;12.60;39.80
6556;DHT22;3311;48.32423000;14.29074500;2023-03-01T12:18:56;12.70;39.80
6556;DHT22;3311;48.32423000;14.29074500;2023-03-01T12:21:34;12.70;39.90
6556;DHT22;3311;48.32423000;14.29074500;2023-03-01T12:24:23;12.60;39.90
6556;DHT22;3311;48.32423000;14.29074500;2023-03-01T12:27:14;12.70;40.40
6556;DHT22;3311;48.32423000;14.29074500;2023-03-01T12:29:52;12.60;40.00
6556;DHT22;3311;48.32423000;14.29074500;2023-03-01T12:32:35;12.70;40.50
6556;DHT22;3311;48.32423000;14.29074500;2023-03-01T12:35:26;12.70;40.00
6556;DHT22;3311;48.32423000;14.29074500;2023-03-01T12:38:06;12.80;40.00
6556;DHT22;3311;48.32423000;14.29074500;2023-03-01T12:41:00;12.80;40.00
6556;DHT22;3311;48.32423000;14.29074500;2023-03-01T12:43:38;12.80;39.90
6556;DHT22;3311;48.32423000;14.29074500;2023-03-01T12:46:23;12.90;39.90
6556;DHT22;3311;48.32423000;14.29074500;2023-03-01T12:48:59;12.80;40.00
6556;DHT22;3311;48.32423000;14.29074500;2023-03-01T12:51:31;12.80;40.10
6556;DHT22;3311;48.32423000;14.29074500;2023-03-01T12:54:05;12.80;40.00
6556;DHT22;3311;48.32423000;14.29074500;2023-03-01T12:56:36;12.80;40.20
6556;DHT22;3311;48.32423000;14.29074500;2023-03-01T12:59:13;12.80;40.30
6556;DHT22;3311;48.32423000;14.29074500;2023-03-01T13:01:48;12.80;40.30
6556;DHT22;3311;48.32423000;14.29074500;2023-03-01T13:04:27;12.80;40.30
6556;DHT22;3311;48.32423000;14.29074500;2023-03-01T13:07:11;12.80;40.40
6556;DHT22;3311;48.32423000;14.29074500;2023-03-01T13:09:44;12.80;40.50
6556;DHT22;3311;48.32423000;14.29074500;2023-03-01T13:12:45;12.80;40.40
6556;DHT22;3311;48.32423000;14.29074500;2023-03-01T13:15:27;12.80;40.50
6556;DHT22;3311;48.32423000;14.29074500;2023-03-01T13:17:57;12.80;40.50
6556;DHT22;3311;48.32423000;14.29074500;2023-03-01T13:20:30;12.80;40.60
6556;DHT22;3311;48.32423000;14.29074500;2023-03-01T13:23:05;12.70;40.60
6556;DHT22;3311;48.32423000;14.29074500;2023-03-01T13:25:34;12.70;40.80
6556;DHT22;3311;48.32423000;14.29074500;2023-03-01T13:31:59;12.80;40.90
6556;DHT22;3311;48.32423000;14.29074500;2023-03-01T13:34:46;12.80;40.90
6556;DHT22;3311;48.32423000;14.29074500;2023-03-01T13:37:30;12.80;41.10
6556;DHT22;3311;48.32423000;14.29074500;2023-03-01T13:40:00;12.80;41.00
6556;DHT22;3311;48.32423000;14.29074500;2023-03-01T13:42:45;12.80;41.00
6556;DHT22;3311;48.32423000;14.29074500;2023-03-01T13:45:25;12.80;41.10
6556;DHT22;3311;48.32423000;14.29074500;2023-03-01T13:48:02;12.80;41.10
6556;DHT22;3311;48.32423000;14.29074500;2023-03-01T13:50:35;12.70;41.10
6556;DHT22;3311;48.32423000;14.29074500;2023-03-01T13:53:06;12.80;41.30
6556;DHT22;3311;48.32423000;14.29074500;2023-03-01T13:55:41;12.80;41.30
6556;DHT22;3311;48.32423000;14.29074500;2023-03-01T13:58:19;12.80;41.20
6556;DHT22;3311;48.32423000;14.29074500;2023-03-01T14:00:54;12.80;41.10
6556;DHT22;3311;48.32423000;14.29074500;2023-03-01T14:03:21;12.80;41.10
6556;DHT22;3311;48.32423000;14.29074500;2023-03-01T14:06:03;14.10;42.20
6556;DHT22;3311;48.32423000;14.29074500;2023-03-01T14:08:34;12.80;41.30
6556;DHT22;3311;48.32423000;14.29074500;2023-03-01T14:14:30;12.80;41.40
6556;DHT22;3311;48.32423000;14.29074500;2023-03-01T14:17:09;12.70;41.40
6556;DHT22;3311;48.32423000;14.29074500;2023-03-01T14:19:41;12.80;41.60
6556;DHT22;3311;48.32423000;14.29074500;2023-03-01T14:22:18;12.80;41.60